Terminal Aerodrome Forecast
Issued by NWS

Home | Current Version | Previous Version | Text Only | Print | Product List | Glossary On
Versions: 1 2 3 4 5 6 7 8 9 10 11 12 13 14 15 16 17 18 19 20 21
000
FTUS45 KABQ 292300
TAFTCC
TAF
KTCC 292338Z 3000/3024 21011KT P6SM FEW090 BKN200
     FM300300 17010KT P6SM VCTS SCT060CB BKN090
      TEMPO 3004/3007 6SM RA BKN040
     FM300700 20008KT P6SM VCSH SCT060 SCT100
     FM300900 30008KT P6SM FEW100
     FM302100 04013KT P6SM SCT090=

USA.gov is the U.S. government's official web portal to all federal, state and local government web resources and services.